createdAt,value
2022-10-18T00:01:24.365Z,100.00
2022-10-18T00:03:51.934Z,100.00
2022-10-18T00:06:19.305Z,100.00
2022-10-18T00:08:48.744Z,100.00
2022-10-18T00:11:16.031Z,100.00
2022-10-18T00:13:43.287Z,100.00
2022-10-18T00:16:26.361Z,100.00
2022-10-18T00:27:09.157Z,100.00
2022-10-18T00:52:54.349Z,100.00
2022-10-18T01:06:11.535Z,100.00
2022-10-18T01:08:55.746Z,100.00
2022-10-18T01:11:36.312Z,100.00
2022-10-18T01:14:26.141Z,100.00
2022-10-18T01:17:01.480Z,100.00
2022-10-18T01:19:59.614Z,100.00
2022-10-18T01:22:48.575Z,100.00
2022-10-18T01:25:36.706Z,100.00
2022-10-18T01:28:37.101Z,100.00
2022-10-18T01:31:13.633Z,100.00
2022-10-18T01:33:46.543Z,100.00
2022-10-18T01:36:32.853Z,100.00
2022-10-18T01:39:06.238Z,100.00
2022-10-18T01:41:36.891Z,100.00
2022-10-18T01:44:06.759Z,100.00
2022-10-18T01:46:34.866Z,100.00
2022-10-18T01:49:02.116Z,100.00
2022-10-18T01:51:30.968Z,100.00
2022-10-18T01:53:58.479Z,100.00
2022-10-18T01:56:35.543Z,100.00
2022-10-18T01:59:05.780Z,100.00
2022-10-18T02:02:05.586Z,100.00
2022-10-18T02:04:59.137Z,100.00
2022-10-18T02:07:55.322Z,100.00
2022-10-18T02:10:45.875Z,100.00
2022-10-18T02:13:16.539Z,100.00
2022-10-18T02:15:47.563Z,100.00
2022-10-18T02:18:28.291Z,100.00
2022-10-18T02:20:56.695Z,100.00
2022-10-18T02:23:24.932Z,100.00
2022-10-18T02:25:52.870Z,100.00
2022-10-18T02:28:20.798Z,100.00
2022-10-18T02:30:59.441Z,100.00
2022-10-18T02:33:35.913Z,100.00
2022-10-18T02:36:07.720Z,100.00
2022-10-18T02:59:22.030Z,100.00
2022-10-18T03:09:17.142Z,100.00
2022-10-18T03:15:03.714Z,100.00
2022-10-18T03:22:22.464Z,100.00
2022-10-18T03:26:02.083Z,100.00
2022-10-18T03:50:04.666Z,100.00
2022-10-18T03:53:49.766Z,100.00
2022-10-18T04:00:05.054Z,100.00
2022-10-18T04:02:32.584Z,100.00
2022-10-18T04:05:00.208Z,100.00
2022-10-18T04:07:28.113Z,100.00
2022-10-18T04:09:58.612Z,100.00
2022-10-18T04:12:26.097Z,100.00
2022-10-18T04:14:55.567Z,100.00
2022-10-18T04:17:25.720Z,100.00
2022-10-18T04:19:53.180Z,100.00
2022-10-18T04:22:20.423Z,100.00
2022-10-18T04:24:47.647Z,100.00
2022-10-18T04:27:15.106Z,100.00
2022-10-18T04:29:42.288Z,100.00
2022-10-18T04:32:09.576Z,100.00
2022-10-18T04:34:37.814Z,100.00
2022-10-18T04:37:05.248Z,100.00
2022-10-18T04:39:32.649Z,100.00
2022-10-18T04:41:59.855Z,100.00
2022-10-18T04:44:27.059Z,100.00
2022-10-18T04:46:54.584Z,100.00
2022-10-18T04:49:21.802Z,100.00
2022-10-18T04:51:49.116Z,100.00
2022-10-18T04:54:16.347Z,100.00
2022-10-18T05:08:56.300Z,100.00
2022-10-18T05:11:23.473Z,100.00
2022-10-18T05:13:54.599Z,100.00
2022-10-18T05:16:22.408Z,100.00
2022-10-18T05:18:54.684Z,100.00
2022-10-18T05:21:25.238Z,100.00
2022-10-18T05:23:56.821Z,100.00
2022-10-18T05:26:24.523Z,100.00
2022-10-18T05:28:52.010Z,100.00
2022-10-18T05:31:19.850Z,100.00
2022-10-18T05:33:54.078Z,100.00
2022-10-18T05:36:26.329Z,100.00
2022-10-18T05:38:54.581Z,100.00
2022-10-18T05:41:22.712Z,100.00
2022-10-18T05:43:50.035Z,100.00
2022-10-18T05:46:20.260Z,100.00
2022-10-18T05:48:52.078Z,100.00
2022-10-18T05:51:20.609Z,100.00
2022-10-18T05:53:48.020Z,100.00
2022-10-18T05:56:15.516Z,100.00
2022-10-18T05:58:43.430Z,100.00
2022-10-18T06:01:11.804Z,100.00
2022-10-18T06:03:39.997Z,100.00
2022-10-18T06:06:11.190Z,100.00
2022-10-18T06:08:39.703Z,100.00
2022-10-18T06:11:15.385Z,100.00
2022-10-18T06:13:44.788Z,100.00
2022-10-18T06:16:12.973Z,100.00
2022-10-18T06:18:41.951Z,100.00
2022-10-18T06:21:14.872Z,100.00
2022-10-18T06:23:42.723Z,100.00
2022-10-18T06:26:12.944Z,100.00
2022-10-18T06:28:42.465Z,100.00
2022-10-18T06:31:11.314Z,100.00
2022-10-18T06:33:47.277Z,100.00
2022-10-18T06:36:16.847Z,100.00
2022-10-18T06:38:44.750Z,100.00
2022-10-18T06:41:12.365Z,100.00
2022-10-18T06:43:40.303Z,100.00
2022-10-18T06:46:13.707Z,100.00
2022-10-18T06:48:41.146Z,100.00
2022-10-18T06:51:10.159Z,100.00
2022-10-18T07:06:13.425Z,100.00
2022-10-18T07:08:41.082Z,100.00
2022-10-18T07:11:09.907Z,100.00
2022-10-18T07:13:37.352Z,100.00
2022-10-18T07:16:10.686Z,100.00
2022-10-18T07:18:42.964Z,100.00
2022-10-18T07:21:12.880Z,100.00
2022-10-18T07:23:43.568Z,100.00
2022-10-18T07:26:17.565Z,100.00
2022-10-18T07:28:46.889Z,100.00
2022-10-18T07:31:14.193Z,100.00
2022-10-18T07:33:43.077Z,100.00
2022-10-18T07:36:11.712Z,100.00
2022-10-18T07:38:42.416Z,100.00
2022-10-18T07:41:12.035Z,99.97
2022-10-18T07:43:47.590Z,99.80
2022-10-18T07:46:16.067Z,99.39
2022-10-18T07:48:43.596Z,98.17
2022-10-18T07:51:11.170Z,96.21
2022-10-18T07:53:40.481Z,96.48
2022-10-18T07:56:16.497Z,95.68
2022-10-18T07:58:45.451Z,95.80
2022-10-18T08:01:14.750Z,95.86
2022-10-18T08:03:45.781Z,95.36
2022-10-18T08:06:16.348Z,94.98
2022-10-18T08:08:44.761Z,94.08
2022-10-18T08:11:15.423Z,94.03
2022-10-18T08:13:44.431Z,93.59
2022-10-18T08:16:17.637Z,92.67
2022-10-18T08:18:45.076Z,92.71
2022-10-18T08:21:15.263Z,92.86
2022-10-18T08:23:43.424Z,91.86
2022-10-18T08:26:13.017Z,92.21
2022-10-18T08:28:49.105Z,92.51
2022-10-18T08:31:21.587Z,92.24
2022-10-18T08:33:48.816Z,91.60
2022-10-18T08:36:17.197Z,91.91
2022-10-18T08:38:46.467Z,91.11
2022-10-18T08:41:48.096Z,90.42
2022-10-18T08:44:27.943Z,88.15
2022-10-18T08:47:07.323Z,87.08
2022-10-18T08:49:46.646Z,87.21
2022-10-18T08:52:24.040Z,86.26
2022-10-18T08:55:02.133Z,83.44
2022-10-18T08:57:31.255Z,80.08
2022-10-18T09:00:04.717Z,77.97
2022-10-18T09:02:35.597Z,77.65
2022-10-18T09:05:21.536Z,77.35
2022-10-18T09:08:15.584Z,77.08
2022-10-18T09:10:49.941Z,77.80
2022-10-18T09:13:32.829Z,77.85
2022-10-18T09:16:02.780Z,77.44
2022-10-18T09:18:33.022Z,76.50
2022-10-18T09:21:26.704Z,74.38
2022-10-18T09:24:02.743Z,75.13
2022-10-18T09:26:34.213Z,75.91
2022-10-18T09:29:24.550Z,76.70
2022-10-18T09:32:19.452Z,76.89
2022-10-18T09:34:53.619Z,76.23
2022-10-18T09:37:21.735Z,76.02
2022-10-18T09:39:50.794Z,73.62
2022-10-18T09:42:31.884Z,71.81
2022-10-18T09:45:27.686Z,69.34
2022-10-18T09:48:19.795Z,67.25
2022-10-18T09:51:05.588Z,65.95
2022-10-18T09:53:43.376Z,65.02
2022-10-18T09:56:29.088Z,65.02
2022-10-18T09:58:56.722Z,63.73
2022-10-18T10:01:27.736Z,62.70
2022-10-18T10:03:55.675Z,61.96
2022-10-18T10:06:28.068Z,61.72
2022-10-18T10:09:05.666Z,61.92
2022-10-18T10:11:40.308Z,60.91
2022-10-18T10:14:23.774Z,58.85
2022-10-18T10:16:59.875Z,55.38
2022-10-18T10:19:34.103Z,55.99
2022-10-18T10:22:08.208Z,56.18
2022-10-18T10:24:46.610Z,54.04
2022-10-18T10:27:32.504Z,52.86
2022-10-18T10:30:07.063Z,52.29
2022-10-18T10:32:47.673Z,51.45
2022-10-18T10:35:53.813Z,50.01
2022-10-18T10:38:30.091Z,49.75
2022-10-18T10:40:58.312Z,49.57
2022-10-18T10:43:38.085Z,47.74
2022-10-18T10:46:15.889Z,46.96
2022-10-18T10:49:27.509Z,46.79
2022-10-18T10:51:53.677Z,46.54
2022-10-18T10:54:35.925Z,44.87
2022-10-18T10:57:11.363Z,44.65
2022-10-18T10:59:51.654Z,44.75
2022-10-18T11:02:29.401Z,45.40
2022-10-18T11:04:58.432Z,45.15
2022-10-18T11:07:41.938Z,43.15
2022-10-18T11:10:17.295Z,42.88
2022-10-18T11:12:50.382Z,43.61
2022-10-18T11:15:36.570Z,42.71
2022-10-18T11:18:14.759Z,41.87
2022-10-18T11:20:57.046Z,41.02
2022-10-18T11:23:35.816Z,40.88
2022-10-18T11:26:12.387Z,40.57
2022-10-18T11:28:49.359Z,40.66
2022-10-18T11:31:44.153Z,41.09
2022-10-18T11:34:43.051Z,41.15
2022-10-18T11:37:42.527Z,40.68
2022-10-18T11:40:32.366Z,39.97
2022-10-18T11:43:03.514Z,40.17
2022-10-18T11:45:57.890Z,40.07
2022-10-18T11:48:58.370Z,40.11
2022-10-18T11:52:06.698Z,40.29
2022-10-18T11:54:43.897Z,39.40
2022-10-18T11:57:17.280Z,39.48
2022-10-18T11:59:55.539Z,39.73
2022-10-18T12:02:44.509Z,39.90
2022-10-18T12:05:30.261Z,39.53
2022-10-18T12:08:07.401Z,39.35
2022-10-18T12:10:46.188Z,39.96
2022-10-18T12:13:37.174Z,40.77
2022-10-18T12:16:05.659Z,40.54
2022-10-18T12:18:34.354Z,40.20
2022-10-18T12:21:08.148Z,39.91
2022-10-18T12:23:45.550Z,39.91
2022-10-18T12:26:13.902Z,40.17
2022-10-18T12:28:51.792Z,40.29
2022-10-18T12:31:25.219Z,40.03
2022-10-18T12:33:58.944Z,39.73
2022-10-18T12:36:44.537Z,40.07
2022-10-18T12:39:43.999Z,39.96
2022-10-18T12:42:30.128Z,38.74
2022-10-18T12:45:32.448Z,38.64
2022-10-18T12:48:20.111Z,38.96
2022-10-18T12:51:00.987Z,38.81
2022-10-18T12:53:29.600Z,38.96
2022-10-18T12:56:28.470Z,39.57
2022-10-18T12:59:14.448Z,40.39
2022-10-18T13:01:50.987Z,40.43
2022-10-18T13:04:27.562Z,41.07
2022-10-18T13:07:45.321Z,41.75
2022-10-18T13:10:13.901Z,42.00
2022-10-18T13:12:53.548Z,42.63
2022-10-18T13:15:40.583Z,42.85
2022-10-18T13:18:29.534Z,43.32
2022-10-18T13:21:20.229Z,42.88
2022-10-18T13:24:26.180Z,42.35
2022-10-18T13:27:04.227Z,41.36
2022-10-18T13:29:56.549Z,41.17
2022-10-18T13:32:39.154Z,40.92
2022-10-18T13:35:52.329Z,41.19
2022-10-18T13:38:38.677Z,41.39
2022-10-18T13:41:16.158Z,41.54
2022-10-18T13:43:52.764Z,42.03
2022-10-18T13:46:22.191Z,42.12
2022-10-18T13:48:54.560Z,41.99
2022-10-18T13:52:16.948Z,42.34
2022-10-18T13:55:14.903Z,42.57
2022-10-18T13:57:57.689Z,43.17
2022-10-18T14:00:35.907Z,43.40
2022-10-18T14:03:51.832Z,43.78
2022-10-18T14:06:18.990Z,44.17
2022-10-18T14:09:26.331Z,44.48
2022-10-18T14:12:31.192Z,45.06
2022-10-18T14:15:21.508Z,45.53
2022-10-18T14:17:53.664Z,45.90
2022-10-18T14:20:40.113Z,46.12
2022-10-18T14:23:22.120Z,46.65
2022-10-18T14:25:49.896Z,47.25
2022-10-18T14:28:27.408Z,47.12
2022-10-18T14:31:04.571Z,47.98
2022-10-18T14:33:39.761Z,48.46
2022-10-18T14:36:15.362Z,48.94
2022-10-18T14:38:58.292Z,48.98
2022-10-18T14:41:27.672Z,49.43
2022-10-18T14:44:16.212Z,50.07
2022-10-18T14:46:58.694Z,50.59
2022-10-18T14:49:26.001Z,51.34
2022-10-18T14:51:55.971Z,52.09
2022-10-18T14:54:32.152Z,52.61
2022-10-18T14:57:01.425Z,53.12
2022-10-18T14:59:31.913Z,53.90
2022-10-18T15:02:02.596Z,54.38
2022-10-18T15:04:33.288Z,54.79
2022-10-18T15:07:03.597Z,55.31
2022-10-18T15:09:33.241Z,55.91
2022-10-18T15:12:04.427Z,56.32
2022-10-18T15:14:32.612Z,56.87
2022-10-18T15:17:03.849Z,57.44
2022-10-18T15:19:36.782Z,58.00
2022-10-18T15:22:38.506Z,58.69
2022-10-18T15:25:08.158Z,59.30
2022-10-18T15:27:38.498Z,60.09
2022-10-18T15:30:33.901Z,60.65
2022-10-18T15:33:03.711Z,61.30
2022-10-18T15:35:36.100Z,62.04
2022-10-18T15:38:27.079Z,62.53
2022-10-18T15:40:57.773Z,63.05
2022-10-18T15:43:28.469Z,63.33
2022-10-18T15:46:00.309Z,63.90
2022-10-18T15:48:35.094Z,64.08
2022-10-18T15:51:07.878Z,64.45
2022-10-18T15:53:45.140Z,64.73
2022-10-18T15:56:27.147Z,65.17
2022-10-18T15:58:57.013Z,65.34
2022-10-18T16:01:27.136Z,65.70
2022-10-18T16:06:26.886Z,65.92
2022-10-18T16:08:55.660Z,66.22
2022-10-18T16:11:25.820Z,66.45
2022-10-18T16:13:57.806Z,66.99
2022-10-18T16:16:29.496Z,67.06
2022-10-18T16:18:57.353Z,67.53
2022-10-18T16:21:26.912Z,67.74
2022-10-18T16:23:54.929Z,68.28
2022-10-18T16:26:23.102Z,68.57
2022-10-18T16:28:51.196Z,68.49
2022-10-18T16:31:21.774Z,68.81
2022-10-18T16:33:50.193Z,68.95
2022-10-18T16:36:22.302Z,69.32
2022-10-18T16:38:51.043Z,69.48
2022-10-18T16:41:18.859Z,69.77
2022-10-18T16:43:48.117Z,69.99
2022-10-18T16:46:20.983Z,69.88
2022-10-18T16:48:49.477Z,70.42
2022-10-18T16:51:17.636Z,70.75
2022-10-18T16:53:45.377Z,71.44
2022-10-18T16:56:18.296Z,72.14
2022-10-18T16:58:46.962Z,72.98
2022-10-18T17:01:16.468Z,74.02
2022-10-18T17:03:46.054Z,73.80
2022-10-18T17:06:23.854Z,73.47
2022-10-18T17:08:52.938Z,73.28
2022-10-18T17:11:23.634Z,73.61
2022-10-18T17:13:52.450Z,74.16
2022-10-18T17:19:04.194Z,75.70
2022-10-18T17:21:33.468Z,76.58
2022-10-18T17:24:06.038Z,77.52
2022-10-18T17:26:34.135Z,78.77
2022-10-18T17:29:03.988Z,78.91
2022-10-18T17:31:32.334Z,79.92
2022-10-18T17:34:01.962Z,80.25
2022-10-18T17:36:31.330Z,80.94
2022-10-18T17:38:58.912Z,81.83
2022-10-18T17:41:26.813Z,82.45
2022-10-18T17:43:54.224Z,82.65
2022-10-18T17:46:21.575Z,83.16
2022-10-18T17:48:48.851Z,84.23
2022-10-18T17:51:17.739Z,85.40
2022-10-18T17:53:45.689Z,85.38
2022-10-18T17:56:16.433Z,86.24
2022-10-18T17:58:45.632Z,87.23
2022-10-18T18:01:16.752Z,87.99
2022-10-18T18:03:45.352Z,88.36
2022-10-18T18:06:18.527Z,89.74
2022-10-18T18:08:46.262Z,90.49
2022-10-18T18:11:13.802Z,91.63
2022-10-18T18:13:41.411Z,93.53
2022-10-18T18:16:20.309Z,93.54
2022-10-18T18:18:51.282Z,94.25
2022-10-18T18:21:22.147Z,94.87
2022-10-18T18:23:50.055Z,95.68
2022-10-18T18:26:19.240Z,96.62
2022-10-18T18:28:46.972Z,97.05
2022-10-18T18:31:24.695Z,97.63
2022-10-18T18:33:55.151Z,99.79
2022-10-18T18:36:24.401Z,100.00
2022-10-18T18:38:56.821Z,100.00
2022-10-18T18:41:26.004Z,100.00
2022-10-18T18:43:57.181Z,100.00
2022-10-18T18:46:26.577Z,100.00
2022-10-18T18:48:54.184Z,100.00
2022-10-18T18:51:22.722Z,100.00
2022-10-18T18:53:50.950Z,100.00
2022-10-18T18:58:53.764Z,100.00
2022-10-18T19:01:32.191Z,100.00
2022-10-18T19:04:00.119Z,100.00
2022-10-18T19:06:29.546Z,100.00
2022-10-18T19:09:01.397Z,100.00
2022-10-18T19:11:32.620Z,100.00
2022-10-18T19:14:00.479Z,100.00
2022-10-18T19:16:38.987Z,100.00
2022-10-18T19:19:17.489Z,100.00
2022-10-18T19:21:51.584Z,100.00
2022-10-18T19:24:20.476Z,100.00
2022-10-18T19:27:02.632Z,100.00
2022-10-18T19:29:31.952Z,100.00
2022-10-18T19:32:02.519Z,100.00
2022-10-18T19:34:31.467Z,100.00
2022-10-18T19:36:59.016Z,100.00
2022-10-18T19:39:31.692Z,100.00
2022-10-18T19:42:03.139Z,100.00
2022-10-18T19:44:32.307Z,100.00
2022-10-18T19:47:00.022Z,100.00
2022-10-18T19:49:28.823Z,100.00
2022-10-18T19:51:56.794Z,100.00
2022-10-18T19:54:24.798Z,100.00
2022-10-18T19:56:52.150Z,100.00
2022-10-18T19:59:21.315Z,100.00
2022-10-18T20:01:49.872Z,100.00
2022-10-18T20:04:17.507Z,100.00
2022-10-18T20:06:46.662Z,100.00
2022-10-18T20:09:19.333Z,100.00
2022-10-18T20:11:47.898Z,100.00
2022-10-18T20:14:16.999Z,100.00
2022-10-18T20:16:46.877Z,100.00
2022-10-18T20:19:14.462Z,100.00
2022-10-18T20:21:41.870Z,100.00
2022-10-18T20:24:10.567Z,100.00
2022-10-18T20:26:39.649Z,100.00
2022-10-18T20:29:08.245Z,100.00
2022-10-18T20:31:41.442Z,100.00
2022-10-18T20:34:11.697Z,100.00
2022-10-18T20:36:39.734Z,100.00
2022-10-18T20:39:07.055Z,100.00
2022-10-18T20:41:41.085Z,100.00
2022-10-18T20:44:13.400Z,100.00
2022-10-18T20:46:43.478Z,100.00
2022-10-18T20:49:13.683Z,100.00
2022-10-18T20:51:42.922Z,100.00
2022-10-18T20:54:10.962Z,100.00
2022-10-18T20:56:39.225Z,100.00
2022-10-18T20:59:09.901Z,100.00
2022-10-18T21:01:39.114Z,100.00
2022-10-18T21:04:09.099Z,100.00
2022-10-18T21:06:42.112Z,100.00
2022-10-18T21:09:15.325Z,100.00
2022-10-18T21:11:45.044Z,100.00
2022-10-18T21:14:15.142Z,100.00
2022-10-18T21:16:43.657Z,100.00
2022-10-18T21:19:14.608Z,100.00
2022-10-18T21:21:46.980Z,100.00
2022-10-18T21:24:14.614Z,100.00
2022-10-18T21:27:06.556Z,100.00
2022-10-18T21:29:59.063Z,100.00
2022-10-18T21:33:09.191Z,100.00
2022-10-18T21:36:16.942Z,100.00
2022-10-18T21:38:56.121Z,100.00
2022-10-18T21:42:12.270Z,100.00
2022-10-18T22:20:30.030Z,100.00
2022-10-18T22:23:01.475Z,100.00
2022-10-18T22:25:57.625Z,100.00
2022-10-18T22:29:06.672Z,100.00
2022-10-18T22:31:39.742Z,100.00
2022-10-18T22:34:27.692Z,100.00
2022-10-18T22:37:02.097Z,100.00
2022-10-18T22:39:30.608Z,100.00
2022-10-18T22:42:05.218Z,100.00
2022-10-18T22:44:36.980Z,100.00
2022-10-18T22:47:04.237Z,100.00
2022-10-18T22:49:31.734Z,100.00
2022-10-18T22:51:58.939Z,100.00
2022-10-18T22:54:26.602Z,100.00
2022-10-18T22:56:54.218Z,100.00
2022-10-18T22:59:21.909Z,100.00
2022-10-18T23:01:51.391Z,100.00
2022-10-18T23:04:30.483Z,100.00
2022-10-18T23:06:58.797Z,100.00
2022-10-18T23:09:26.681Z,100.00
2022-10-18T23:11:53.960Z,100.00
2022-10-18T23:14:22.421Z,100.00
2022-10-18T23:16:50.107Z,100.00
2022-10-18T23:19:20.851Z,100.00
2022-10-18T23:21:48.678Z,100.00
2022-10-18T23:24:16.047Z,100.00
2022-10-18T23:26:43.530Z,100.00
2022-10-18T23:29:13.992Z,100.00
2022-10-18T23:31:41.589Z,100.00
2022-10-18T23:34:09.991Z,100.00
2022-10-18T23:36:37.195Z,100.00
2022-10-18T23:39:04.793Z,100.00
2022-10-18T23:41:33.385Z,100.00
2022-10-18T23:44:02.433Z,100.00
2022-10-18T23:46:30.200Z,100.00
2022-10-18T23:48:57.500Z,100.00
2022-10-18T23:51:25.095Z,100.00
2022-10-18T23:53:52.923Z,100.00
2022-10-18T23:56:20.419Z,100.00
2022-10-18T23:58:47.696Z,100.00
